createdAt,value
2023-02-06T00:01:37.729Z,12.02
2023-02-06T00:04:10.629Z,10.75
2023-02-06T00:06:44.132Z,11.35
2023-02-06T00:09:19.059Z,11.55
2023-02-06T00:11:52.416Z,12.25
2023-02-06T00:14:22.994Z,12.13
2023-02-06T00:17:06.477Z,12.35
2023-02-06T00:19:41.765Z,11.55
2023-02-06T00:22:17.069Z,12.25
2023-02-06T00:24:52.192Z,12.70
2023-02-06T00:27:34.453Z,11.70
2023-02-06T00:30:08.846Z,12.40
2023-02-06T00:32:56.062Z,11.30
2023-02-06T00:35:30.204Z,11.68
2023-02-06T00:40:34.360Z,11.57
2023-02-06T00:43:02.501Z,12.43
2023-02-06T00:45:41.813Z,12.50
2023-02-06T00:48:10.759Z,12.85
2023-02-06T00:50:41.421Z,12.40
2023-02-06T00:53:14.176Z,12.65
2023-02-06T00:55:45.829Z,12.15
2023-02-06T00:58:33.563Z,12.43
2023-02-06T01:01:04.636Z,12.90
2023-02-06T01:03:36.518Z,12.73
2023-02-06T01:06:07.977Z,13.90
2023-02-06T01:08:41.101Z,12.20
2023-02-06T01:11:40.894Z,13.40
2023-02-06T01:14:16.459Z,11.65
2023-02-06T01:16:45.761Z,12.32
2023-02-06T01:19:14.554Z,11.25
2023-02-06T01:21:51.696Z,11.95
2023-02-06T01:24:29.740Z,12.40
2023-02-06T01:27:11.250Z,10.40
2023-02-06T01:29:48.922Z,11.95
2023-02-06T01:32:25.493Z,11.95
2023-02-06T01:34:53.552Z,12.20
2023-02-06T01:37:26.752Z,12.88
2023-02-06T01:40:04.559Z,13.30
2023-02-06T01:42:44.923Z,11.18
2023-02-06T01:46:03.391Z,12.50
2023-02-06T01:52:03.422Z,12.50
2023-02-06T01:54:36.150Z,12.55
2023-02-06T01:57:07.571Z,11.90
2023-02-06T01:59:42.879Z,12.23
2023-02-06T02:02:14.653Z,12.25
2023-02-06T02:04:47.515Z,12.25
2023-02-06T02:07:24.284Z,12.95
2023-02-06T02:09:52.978Z,11.63
2023-02-06T02:12:20.105Z,11.73
2023-02-06T02:14:49.527Z,12.18
2023-02-06T02:17:37.939Z,13.55
2023-02-06T02:20:20.143Z,12.45
2023-02-06T02:23:03.787Z,13.43
2023-02-06T02:25:51.015Z,13.50
2023-02-06T02:29:02.321Z,12.57
2023-02-06T02:31:47.363Z,12.30
2023-02-06T02:35:05.656Z,12.63
2023-02-06T02:37:59.872Z,11.57
2023-02-06T02:40:48.414Z,11.48
2023-02-06T02:43:22.055Z,11.60
2023-02-06T02:46:13.225Z,12.30
2023-02-06T02:48:47.329Z,12.32
2023-02-06T02:51:16.688Z,12.35
2023-02-06T02:53:43.963Z,12.32
2023-02-06T02:56:21.358Z,12.18
2023-02-06T02:59:02.223Z,11.25
2023-02-06T03:01:42.011Z,12.10
2023-02-06T03:04:21.599Z,10.88
2023-02-06T03:06:48.550Z,11.25
2023-02-06T03:09:40.002Z,10.15
2023-02-06T03:12:33.006Z,10.93
2023-02-06T03:15:05.816Z,10.85
2023-02-06T03:17:43.815Z,10.70
2023-02-06T03:20:11.938Z,10.98
2023-02-06T03:22:40.056Z,10.68
2023-02-06T03:25:11.934Z,9.63
2023-02-06T03:27:41.654Z,10.50
2023-02-06T03:30:12.437Z,10.45
2023-02-06T03:32:47.261Z,10.77
2023-02-06T03:35:22.290Z,10.50
2023-02-06T03:37:50.302Z,10.70
2023-02-06T03:40:18.347Z,10.43
2023-02-06T03:42:51.208Z,10.07
2023-02-06T03:45:29.177Z,11.80
2023-02-06T03:48:01.611Z,10.90
2023-02-06T03:50:28.772Z,10.65
2023-02-06T03:52:58.788Z,8.82
2023-02-06T03:55:25.784Z,9.23
2023-02-06T03:58:06.592Z,8.63
2023-02-06T04:00:34.901Z,8.30
2023-02-06T04:03:02.939Z,9.52
2023-02-06T04:05:29.989Z,8.55
2023-02-06T04:07:57.098Z,8.95
2023-02-06T04:10:26.321Z,9.00
2023-02-06T04:12:53.883Z,9.13
2023-02-06T04:15:20.912Z,9.02
2023-02-06T04:17:59.602Z,9.15
2023-02-06T04:20:28.944Z,8.38
2023-02-06T04:22:56.198Z,9.05
2023-02-06T04:25:23.201Z,7.55
2023-02-06T04:27:50.570Z,8.63
2023-02-06T04:30:18.353Z,9.43
2023-02-06T04:32:45.459Z,8.43
2023-02-06T04:35:12.413Z,9.18
2023-02-06T04:37:39.496Z,8.77
2023-02-06T04:40:07.118Z,8.95
2023-02-06T04:42:34.089Z,9.35
2023-02-06T04:45:01.159Z,8.90
2023-02-06T04:47:28.162Z,9.57
2023-02-06T04:49:55.150Z,9.23
2023-02-06T04:52:22.093Z,8.65
2023-02-06T04:54:48.985Z,8.20
2023-02-06T04:57:16.050Z,7.88
2023-02-06T04:59:43.024Z,8.57
2023-02-06T05:02:09.927Z,8.02
2023-02-06T05:04:38.960Z,8.68
2023-02-06T05:07:06.361Z,8.45
2023-02-06T05:09:33.407Z,8.38
2023-02-06T05:12:00.579Z,8.48
2023-02-06T05:14:27.572Z,9.30
2023-02-06T05:16:54.789Z,8.65
2023-02-06T05:19:21.861Z,9.05
2023-02-06T05:21:48.841Z,8.57
2023-02-06T05:24:15.782Z,9.65
2023-02-06T05:26:42.798Z,10.13
2023-02-06T05:29:09.794Z,9.75
2023-02-06T05:31:36.903Z,8.75
2023-02-06T05:34:03.919Z,10.23
2023-02-06T05:36:30.861Z,8.90
2023-02-06T05:38:57.804Z,10.77
2023-02-06T05:41:24.792Z,11.02
2023-02-06T05:43:51.729Z,10.05
2023-02-06T05:46:19.568Z,10.02
2023-02-06T05:48:46.642Z,8.70
2023-02-06T05:51:13.846Z,10.23
2023-02-06T05:53:40.757Z,10.32
2023-02-06T05:56:07.849Z,10.18
2023-02-06T05:58:34.807Z,9.48
2023-02-06T06:24:11.442Z,9.60
2023-02-06T06:26:39.387Z,9.07
2023-02-06T06:29:06.538Z,9.82
2023-02-06T06:31:33.493Z,10.70
2023-02-06T06:34:00.411Z,9.63
2023-02-06T06:36:27.531Z,10.50
2023-02-06T06:38:54.505Z,10.27
2023-02-06T06:41:21.666Z,10.43
2023-02-06T06:43:50.693Z,9.93
2023-02-06T06:46:19.075Z,10.18
2023-02-06T06:48:45.936Z,10.13
2023-02-06T06:51:12.864Z,10.48
2023-02-06T06:53:40.144Z,9.65
2023-02-06T06:56:10.202Z,10.38
2023-02-06T06:58:37.149Z,11.02
2023-02-06T07:01:05.153Z,12.75
2023-02-06T07:03:32.183Z,12.52
2023-02-06T07:05:59.121Z,13.30
2023-02-06T07:08:26.848Z,10.75
2023-02-06T07:10:53.832Z,11.48
2023-02-06T07:13:20.712Z,11.57
2023-02-06T07:15:47.698Z,11.57
2023-02-06T07:18:14.634Z,12.43
2023-02-06T07:20:41.754Z,11.70
2023-02-06T07:23:08.703Z,12.32
2023-02-06T07:25:35.818Z,13.13
2023-02-06T07:28:02.822Z,12.40
2023-02-06T07:30:29.798Z,13.57
2023-02-06T07:32:56.707Z,13.73
2023-02-06T07:35:23.609Z,13.30
2023-02-06T07:37:53.668Z,13.00
2023-02-06T07:40:20.746Z,13.60
2023-02-06T07:42:47.642Z,13.60
2023-02-06T07:45:21.053Z,14.13
2023-02-06T07:47:47.933Z,14.15
2023-02-06T07:50:15.136Z,13.68
2023-02-06T07:52:42.132Z,12.80
2023-02-06T07:55:10.316Z,14.57
2023-02-06T07:57:37.257Z,13.95
2023-02-06T08:00:06.143Z,14.25
2023-02-06T08:02:38.967Z,12.63
2023-02-06T08:05:07.448Z,13.32
2023-02-06T08:07:34.474Z,13.10
2023-02-06T08:10:01.481Z,13.73
2023-02-06T08:12:30.511Z,13.90
2023-02-06T08:14:57.419Z,14.32
2023-02-06T08:17:24.661Z,13.77
2023-02-06T08:19:51.577Z,13.80
2023-02-06T08:22:18.478Z,14.30
2023-02-06T08:24:45.529Z,14.70
2023-02-06T08:27:12.421Z,13.18
2023-02-06T08:29:42.702Z,12.50
2023-02-06T08:32:10.935Z,12.23
2023-02-06T08:34:41.042Z,13.32
2023-02-06T08:37:08.199Z,12.35
2023-02-06T08:39:35.193Z,11.73
2023-02-06T08:42:02.322Z,12.60
2023-02-06T08:44:29.300Z,12.50
2023-02-06T08:47:09.151Z,30.23
2023-02-06T08:49:36.522Z,14.82
2023-02-06T08:52:03.453Z,15.23
2023-02-06T08:54:30.418Z,13.13
2023-02-06T08:57:00.946Z,13.18
2023-02-06T08:59:31.276Z,18.75
2023-02-06T09:01:58.261Z,14.48
2023-02-06T09:04:25.174Z,13.32
2023-02-06T09:06:52.224Z,12.15
2023-02-06T09:09:19.381Z,12.40
2023-02-06T09:11:46.283Z,11.40
2023-02-06T09:14:15.766Z,12.25
2023-02-06T09:16:43.111Z,13.25
2023-02-06T09:19:12.795Z,12.43
2023-02-06T09:21:39.874Z,12.70
2023-02-06T09:24:08.788Z,12.48
2023-02-06T09:26:50.362Z,10.88
2023-02-06T09:29:24.618Z,11.63
2023-02-06T09:31:51.557Z,11.80
2023-02-06T09:34:18.511Z,11.00
2023-02-06T09:36:45.898Z,11.98
2023-02-06T09:39:13.032Z,11.48
2023-02-06T09:41:52.319Z,10.95
2023-02-06T09:44:40.592Z,10.40
2023-02-06T09:47:07.516Z,11.27
2023-02-06T09:49:43.534Z,11.80
2023-02-06T09:52:50.911Z,11.02
2023-02-06T09:55:17.911Z,11.60
2023-02-06T09:58:03.629Z,12.40
2023-02-06T10:00:42.808Z,13.15
2023-02-06T10:03:27.657Z,13.00
2023-02-06T10:06:13.355Z,12.48
2023-02-06T10:08:47.096Z,12.48
2023-02-06T10:11:23.698Z,13.68
2023-02-06T10:13:57.224Z,14.00
2023-02-06T10:16:48.493Z,12.95
2023-02-06T10:19:25.180Z,12.85
2023-02-06T10:22:00.162Z,12.32
2023-02-06T10:24:33.872Z,12.60
2023-02-06T10:27:04.707Z,12.80
2023-02-06T10:29:34.603Z,13.40
2023-02-06T10:32:04.484Z,13.32
2023-02-06T10:34:42.841Z,13.43
2023-02-06T10:37:48.532Z,13.73
2023-02-06T10:40:53.143Z,13.23
2023-02-06T10:43:40.640Z,12.63
2023-02-06T10:46:20.611Z,13.55
2023-02-06T10:49:15.008Z,12.98
2023-02-06T10:51:45.540Z,11.18
2023-02-06T10:54:19.637Z,13.68
2023-02-06T10:56:48.098Z,12.88
2023-02-06T10:59:40.647Z,12.18
2023-02-06T11:02:18.149Z,14.07
2023-02-06T11:04:50.097Z,12.48
2023-02-06T11:07:25.160Z,12.30
2023-02-06T11:09:52.772Z,13.00
2023-02-06T11:12:37.446Z,12.23
2023-02-06T11:15:18.504Z,10.55
2023-02-06T11:17:45.772Z,11.05
2023-02-06T11:20:23.132Z,10.23
2023-02-06T11:22:53.909Z,9.85
2023-02-06T11:25:24.980Z,11.40
2023-02-06T11:27:58.482Z,10.85
2023-02-06T11:30:40.521Z,8.70
2023-02-06T11:33:26.148Z,10.63
2023-02-06T11:35:59.102Z,8.65
2023-02-06T11:38:29.616Z,8.73
2023-02-06T11:41:16.048Z,9.32
2023-02-06T11:43:43.025Z,9.00
2023-02-06T11:46:13.315Z,8.98
2023-02-06T11:48:49.672Z,8.85
2023-02-06T11:51:17.014Z,8.90
2023-02-06T11:54:02.456Z,8.82
2023-02-06T11:56:31.579Z,7.68
2023-02-06T11:59:24.272Z,8.18
2023-02-06T12:01:51.332Z,7.30
2023-02-06T12:04:27.650Z,7.13
2023-02-06T12:07:16.573Z,6.30
2023-02-06T12:09:44.298Z,5.97
2023-02-06T12:12:35.612Z,5.43
2023-02-06T12:15:29.432Z,6.20
2023-02-06T12:18:01.832Z,5.70
2023-02-06T12:20:32.692Z,5.35
2023-02-06T12:23:06.520Z,5.53
2023-02-06T12:25:41.686Z,5.28
2023-02-06T12:28:33.408Z,4.28
2023-02-06T12:31:11.770Z,4.55
2023-02-06T12:34:01.643Z,5.15
2023-02-06T12:36:39.629Z,4.95
2023-02-06T12:39:17.738Z,6.50
2023-02-06T12:42:00.168Z,5.38
2023-02-06T12:44:40.615Z,6.80
2023-02-06T12:47:07.849Z,5.93
2023-02-06T12:49:47.762Z,6.55
2023-02-06T12:52:35.585Z,9.55
2023-02-06T12:55:16.091Z,6.88
2023-02-06T12:57:43.493Z,6.60
2023-02-06T13:00:13.359Z,7.10
2023-02-06T13:03:03.597Z,6.63
2023-02-06T13:05:37.884Z,6.55
2023-02-06T13:08:10.273Z,7.25
2023-02-06T13:10:39.002Z,6.57
2023-02-06T13:13:06.667Z,6.72
2023-02-06T13:15:41.311Z,6.57
2023-02-06T13:18:50.619Z,5.70
2023-02-06T13:21:17.564Z,6.90
2023-02-06T13:24:03.389Z,6.18
2023-02-06T13:26:56.566Z,6.55
2023-02-06T13:29:33.589Z,6.55
2023-02-06T13:32:15.916Z,5.47
2023-02-06T13:34:49.234Z,5.85
2023-02-06T13:37:38.382Z,6.10
2023-02-06T13:40:23.787Z,6.22
2023-02-06T13:43:11.357Z,6.10
2023-02-06T13:45:58.532Z,5.82
2023-02-06T13:48:45.605Z,5.82
2023-02-06T13:51:44.149Z,5.20
2023-02-06T13:54:13.929Z,5.63
2023-02-06T13:56:59.319Z,5.95
2023-02-06T13:59:34.769Z,6.18
2023-02-06T14:02:22.341Z,6.78
2023-02-06T14:04:51.077Z,6.10
2023-02-06T14:07:42.936Z,5.32
2023-02-06T14:10:43.633Z,6.10
2023-02-06T14:13:38.721Z,6.03
2023-02-06T14:16:24.580Z,6.45
2023-02-06T14:19:27.009Z,6.18
2023-02-06T14:22:00.047Z,6.43
2023-02-06T14:24:30.004Z,6.88
2023-02-06T14:27:12.269Z,6.70
2023-02-06T14:30:06.635Z,6.30
2023-02-06T14:33:00.858Z,5.70
2023-02-06T14:35:49.745Z,7.00
2023-02-06T14:39:15.839Z,7.15
2023-02-06T14:41:42.937Z,6.90
2023-02-06T14:44:20.369Z,7.35
2023-02-06T14:46:47.737Z,7.53
2023-02-06T14:49:23.450Z,7.07
2023-02-06T14:51:56.467Z,11.27
2023-02-06T14:54:50.795Z,9.60
2023-02-06T14:57:36.048Z,13.38
2023-02-06T15:00:23.341Z,19.70
2023-02-06T15:03:05.542Z,11.07
2023-02-06T15:05:35.288Z,10.32
2023-02-06T15:08:06.861Z,11.43
2023-02-06T15:10:39.382Z,13.48
2023-02-06T15:13:06.978Z,14.20
2023-02-06T15:15:42.336Z,8.27
2023-02-06T15:18:22.441Z,7.80
2023-02-06T15:21:00.283Z,7.85
2023-02-06T15:23:45.309Z,9.05
2023-02-06T15:26:47.219Z,10.15
2023-02-06T15:29:28.226Z,8.57
2023-02-06T15:32:01.875Z,6.20
2023-02-06T15:34:33.869Z,7.78
2023-02-06T15:37:39.670Z,5.22
2023-02-06T15:40:21.251Z,5.70
2023-02-06T15:42:50.880Z,5.63
2023-02-06T15:45:39.689Z,5.75
2023-02-06T15:48:17.133Z,5.45
2023-02-06T15:51:12.023Z,5.78
2023-02-06T15:53:48.704Z,5.00
2023-02-06T15:56:30.876Z,5.70
2023-02-06T15:59:06.493Z,6.13
2023-02-06T16:01:38.663Z,7.60
2023-02-06T16:04:20.341Z,7.90
2023-02-06T16:06:59.090Z,8.52
2023-02-06T16:09:26.486Z,8.02
2023-02-06T16:11:56.302Z,11.77
2023-02-06T16:14:32.579Z,19.33
2023-02-06T16:17:06.812Z,12.57
2023-02-06T16:19:46.663Z,11.32
2023-02-06T16:22:23.115Z,18.85
2023-02-06T16:24:52.076Z,11.52
2023-02-06T16:27:27.694Z,19.90
2023-02-06T16:29:57.420Z,6.88
2023-02-06T16:32:29.350Z,5.22
2023-02-06T16:34:57.124Z,6.55
2023-02-06T16:37:29.469Z,6.07
2023-02-06T16:39:56.839Z,5.28
2023-02-06T16:42:27.162Z,4.60
2023-02-06T16:45:00.012Z,4.32
2023-02-06T16:47:27.290Z,4.60
2023-02-06T16:49:54.340Z,4.60
2023-02-06T16:52:31.469Z,4.88
2023-02-06T16:55:00.038Z,11.35
2023-02-06T16:57:35.218Z,5.07
2023-02-06T17:00:05.415Z,4.25
2023-02-06T17:02:32.662Z,3.70
2023-02-06T17:04:59.726Z,6.28
2023-02-06T17:07:30.798Z,4.20
2023-02-06T17:09:59.166Z,4.13
2023-02-06T17:12:27.602Z,4.28
2023-02-06T17:14:55.048Z,5.43
2023-02-06T17:17:23.153Z,6.20
2023-02-06T17:19:52.278Z,3.92
2023-02-06T17:22:19.750Z,4.40
2023-02-06T17:24:46.816Z,4.55
2023-02-06T17:27:23.239Z,5.50
2023-02-06T17:29:51.137Z,3.97
2023-02-06T17:32:22.214Z,4.22
2023-02-06T17:34:51.515Z,4.88
2023-02-06T17:37:20.984Z,4.15
2023-02-06T17:39:52.672Z,4.80
2023-02-06T17:42:22.164Z,4.60
2023-02-06T17:44:49.476Z,5.22
2023-02-06T17:47:16.483Z,6.03
2023-02-06T17:49:43.459Z,5.22
2023-02-06T17:52:10.445Z,6.40
2023-02-06T17:54:37.434Z,5.35
2023-02-06T17:57:04.513Z,5.63
2023-02-06T17:59:31.492Z,5.38
2023-02-06T18:01:59.473Z,4.90
2023-02-06T18:04:26.613Z,5.43
2023-02-06T18:06:53.601Z,5.88
2023-02-06T18:09:20.647Z,5.40
2023-02-06T18:11:47.630Z,5.68
2023-02-06T18:14:14.623Z,4.72
2023-02-06T18:16:42.968Z,6.00
2023-02-06T18:19:10.511Z,4.57
2023-02-06T18:21:37.460Z,5.97
2023-02-06T18:24:05.000Z,4.88
2023-02-06T18:26:32.133Z,5.10
2023-02-06T18:28:59.452Z,4.30
2023-02-06T18:31:29.686Z,4.53
2023-02-06T18:33:57.625Z,4.10
2023-02-06T18:36:26.111Z,5.03
2023-02-06T18:38:53.927Z,5.00
2023-02-06T18:41:40.262Z,4.40
2023-02-06T18:44:12.658Z,4.38
2023-02-06T18:46:39.837Z,4.43
2023-02-06T18:49:07.236Z,5.25
2023-02-06T18:51:34.605Z,4.38
2023-02-06T18:54:01.709Z,3.67
2023-02-06T18:56:28.988Z,3.80
2023-02-06T18:58:56.167Z,3.72
2023-02-06T19:01:35.803Z,4.20
2023-02-06T19:04:11.817Z,4.57
2023-02-06T19:06:47.084Z,3.80
2023-02-06T19:09:29.801Z,3.60
2023-02-06T19:12:08.099Z,5.07
2023-02-06T19:14:40.213Z,3.90
2023-02-06T19:17:15.059Z,3.22
2023-02-06T19:19:58.078Z,3.65
2023-02-06T19:22:31.666Z,3.50
2023-02-06T19:25:03.540Z,3.60
2023-02-06T19:27:35.295Z,4.20
2023-02-06T19:30:09.336Z,4.00
2023-02-06T19:33:02.221Z,3.72
2023-02-06T19:35:31.870Z,4.13
2023-02-06T19:38:04.110Z,4.68
2023-02-06T19:40:41.886Z,5.50
2023-02-06T19:43:13.544Z,6.72
2023-02-06T19:45:42.809Z,8.13
2023-02-06T19:48:28.829Z,9.32
2023-02-06T19:51:09.745Z,6.10
2023-02-06T19:53:41.468Z,7.85
2023-02-06T19:56:28.566Z,7.38
2023-02-06T19:59:41.321Z,7.63
2023-02-06T20:02:23.340Z,7.97
2023-02-06T20:05:07.959Z,6.00
2023-02-06T20:08:04.130Z,5.55
2023-02-06T20:16:25.318Z,4.40
2023-02-06T20:18:55.944Z,4.45
2023-02-06T20:21:30.059Z,6.82
2023-02-06T20:27:00.200Z,7.82
2023-02-06T20:29:33.076Z,4.85
2023-02-06T20:32:27.307Z,4.03
2023-02-06T20:35:11.137Z,4.70
2023-02-06T20:38:01.342Z,5.70
2023-02-06T20:40:44.697Z,5.53
2023-02-06T20:43:21.937Z,5.72
2023-02-06T20:46:26.338Z,6.32
2023-02-06T20:51:52.737Z,6.53
2023-02-06T20:54:34.988Z,6.57
2023-02-06T20:57:46.811Z,7.55
2023-02-06T21:00:38.485Z,6.43
2023-02-06T21:03:29.152Z,6.97
2023-02-06T21:06:38.638Z,6.90
2023-02-06T21:09:28.058Z,7.60
2023-02-06T21:11:55.045Z,6.53
2023-02-06T21:14:22.273Z,6.43
2023-02-06T21:16:49.761Z,11.85
2023-02-06T21:19:26.838Z,7.82
2023-02-06T21:21:53.923Z,7.93
2023-02-06T21:24:20.995Z,4.60
2023-02-06T21:26:47.961Z,4.80
2023-02-06T21:29:15.796Z,6.15
2023-02-06T21:31:43.786Z,5.25
2023-02-06T21:34:17.042Z,5.90
2023-02-06T21:36:45.292Z,5.65
2023-02-06T21:39:17.070Z,4.80
2023-02-06T21:41:46.331Z,5.07
2023-02-06T21:44:13.310Z,5.68
2023-02-06T21:46:40.416Z,5.85
2023-02-06T21:49:09.278Z,5.97
2023-02-06T21:51:36.626Z,6.40
2023-02-06T21:54:03.607Z,6.50
2023-02-06T21:56:31.277Z,6.25
2023-02-06T21:58:58.407Z,7.07
2023-02-06T22:01:28.802Z,6.38
2023-02-06T22:03:57.327Z,6.10
2023-02-06T22:06:24.561Z,6.88
2023-02-06T22:08:53.461Z,6.65
2023-02-06T22:11:23.716Z,6.18
2023-02-06T22:13:51.054Z,6.65
2023-02-06T22:16:20.661Z,7.18
2023-02-06T22:18:48.124Z,6.47
2023-02-06T22:21:19.998Z,6.93
2023-02-06T22:23:48.461Z,6.68
2023-02-06T22:26:18.005Z,5.95
2023-02-06T22:28:45.793Z,5.97
2023-02-06T22:31:25.473Z,5.70
2023-02-06T22:33:53.414Z,5.95
2023-02-06T22:36:24.397Z,5.10
2023-02-06T22:39:00.310Z,4.90
2023-02-06T22:41:27.984Z,4.65
2023-02-06T22:43:55.115Z,5.13
2023-02-06T22:46:25.184Z,5.85
2023-02-06T22:48:52.953Z,5.85
2023-02-06T22:51:20.637Z,5.35
2023-02-06T22:53:48.090Z,5.10
2023-02-06T22:56:36.221Z,4.35
2023-02-06T22:59:07.886Z,4.50
2023-02-06T23:01:44.244Z,4.57
2023-02-06T23:04:23.112Z,4.63
2023-02-06T23:06:51.032Z,4.95
2023-02-06T23:09:21.408Z,5.00
2023-02-06T23:11:48.915Z,4.63
2023-02-06T23:14:17.448Z,5.28
2023-02-06T23:16:45.305Z,5.80
2023-02-06T23:19:13.551Z,5.20
2023-02-06T23:21:44.311Z,5.10
2023-02-06T23:24:11.898Z,4.78
2023-02-06T23:26:41.804Z,5.05
2023-02-06T23:29:09.921Z,4.97
2023-02-06T23:31:37.310Z,4.88
2023-02-06T23:34:04.447Z,4.93
2023-02-06T23:36:31.528Z,5.03
2023-02-06T23:39:01.437Z,5.35
2023-02-06T23:41:29.338Z,4.60
2023-02-06T23:43:57.630Z,4.72
2023-02-06T23:46:25.465Z,4.95
2023-02-06T23:48:53.011Z,5.05
2023-02-06T23:51:21.859Z,4.78
2023-02-06T23:53:49.559Z,5.00
2023-02-06T23:56:21.443Z,4.75
2023-02-06T23:58:48.707Z,5.32
